Nearby METAR Reports


Data Updates Approximately Every Four Hours

METAR is the international standard code format for hourly surface weather observations which is analogous to the SA coding currently used in the US. The acronym roughly translates from French as Aviation Routine Weather Report. SPECI is merely the code name given to METAR formatted products which are issued on a special non-routine basis as dictated by changing meteorological conditions. The SPECI acronym roughly translates as Aviation Selected Special Weather Report.

KSLH - Cheboygan, Michigan, USA
Distance from station: W 9mi, 14km
Updated: 06/23/2017 6:14am
Mostly cloudy
Mostly cloudy
 Wind from calm
Wind: Calm
Temperature: 63°F , 17°C
Dew Point: 63°F , 17°C
Humidity: 100%
Barometer: 29.59 inHg , 1002 hPa
Clouds: Mostly cloudy
Visibility: 7 miles , 11 km
Cloud details: Mostly cloudy 3500 ft
Mostly cloudy 7000 ft
2017/06/23 10:14 KSLH 231014Z AUTO 00000KT 7SM BKN035 BKN070 17/17 A2959 RMK AO2 T01710171
KMCD - Mackinac Island, Michigan, USA
Distance from station: NW 19mi, 31km
Updated: 06/23/2017 6:15am
Fog, Overcast
Fog, Overcast
 Wind from WSW
Wind: WSW 3 mph , 6 km/h
Temperature: 61°F , 16°C
Dew Point: 61°F , 16°C
Humidity: 100%
Barometer: 29.61 inHg , 1002.7 hPa
Summary: Fog
Clouds: Overcast
Visibility: less than 1/4 mile , 2 km
Cloud details: Overcast 200 ft
2017/06/23 10:15 KMCD 231015Z AUTO 25003KT M1/4SM FG OVC002 16/16 A2961 RMK AO2 T01560156
 
KPLN - Pellston, Michigan, USA
Distance from station: WSW 24mi, 38km
Updated: 06/23/2017 5:54am
Overcast
Overcast
 Wind from W
Wind: W 3 mph , 6 km/h
Temperature: 64°F , 18°C
Dew Point: 63°F , 17°C
Humidity: 94%
Barometer: 29.61 inHg , 1002.7 hPa
Clouds: Overcast
Visibility: 9 miles , 14 km
Cloud details: Mostly cloudy 500 ft
Overcast 1800 ft
2017/06/23 09:54 KPLN 230954Z AUTO 27003KT 9SM BKN005 OVC018 18/17 A2961 RMK AO2 SLP027 T01780167
KPZQ - Rogers City, Michigan, USA
Distance from station: SE 31mi, 50km
Updated: 06/23/2017 6:15am
Mist, Overcast
Mist, Overcast
 Wind from calm
Wind: Calm
Temperature: 64°F , 18°C
Dew Point: 63°F , 17°C
Humidity: 94%
Barometer: 29.62 inHg , 1003 hPa
Summary: Mist
Clouds: Overcast
Visibility: 4 miles , 6 km
Cloud details: Overcast 4400 ft
2017/06/23 10:15 KPZQ 231015Z AUTO 00000KT 4SM BR OVC044 18/17 A2962 RMK AO2 T01750170
 
KMGN - Harbor Springs, Michigan, USA
Distance from station: WSW 32mi, 52km
Updated: 06/23/2017 6:14am
Fog, Overcast
Fog, Overcast
 Wind from W
Wind: W 6 mph , 9 km/h
Temperature: 61°F , 16°C
Dew Point: 61°F , 16°C
Humidity: 100%
Barometer: 29.62 inHg , 1003 hPa
Summary: Fog
Clouds: Overcast
Visibility: 1/2 mile , 2 km
Cloud details: Overcast 100 ft
2017/06/23 10:14 KMGN 231014Z AUTO 26005KT 1/2SM FG OVC001 16/16 A2962 RMK AO2 T01660166
KDRM - Drummond Is, Michigan, USA
Distance from station: NE 36mi, 59km
Updated: 06/23/2017 6:14am
Fog, Overcast
Fog, Overcast
 Wind from calm
Wind: Calm
Temperature: 61°F , 16°C
Dew Point: 61°F , 16°C
Humidity: 100%
Barometer: 29.59 inHg , 1002 hPa
Summary: Fog
Clouds: Overcast
Visibility: 1/4 mile , 2 km
Cloud details: Overcast 200 ft
2017/06/23 10:14 KDRM 231014Z AUTO 00000KT 1/4SM FG OVC002 16/16 A2959 RMK AO2 T01560156
 
KCIU - Chippewa Intl, Michigan, USA
Distance from station: N 41mi, 66km
Updated: 06/23/2017 6:10am
Fog, Overcast
Fog, Overcast
 Wind from WNW
Wind: WNW 6 mph , 9 km/h
Temperature: 61°F , 16°C
Dew Point: 61°F , 16°C
Humidity: 100%
Barometer: 29.61 inHg , 1002.7 hPa
Summary: Fog
Clouds: Overcast
Visibility: 1/4 mile , 2 km
Cloud details: Mostly cloudy 700 ft
Overcast 1000 ft
2017/06/23 10:10 KCIU 231010Z AUTO 29005KT 1/4SM FG BKN007 OVC010 16/16 A2961 RMK AO2 CIG 004V009 TSNO PNO $
KGLR - Gaylord, Michigan, USA
Distance from station: SSW 48mi, 77km
Updated: 06/23/2017 5:53am
Light rain, Overcast
Light rain, Overcast
 Wind from WSW
Wind: WSW 6 mph , 9 km/h
Temperature: 64°F , 18°C
Dew Point: 63°F , 17°C
Humidity: 94%
Barometer: 29.63 inHg , 1003.4 hPa
Summary: Light rain
Clouds: Overcast
Visibility: 9 miles , 14 km
Cloud details: Overcast 400 ft
2017/06/23 09:53 KGLR 230953Z AUTO 25005KT 9SM -RA OVC004 18/17 A2963 RMK AO2 RAE35B52 SLP027 P0001 T01830167
 
KCVX - Charlevoix, Michigan, USA
Distance from station: WSW 52mi, 83km
Updated: 06/23/2017 6:15am
Fog, Overcast
Fog, Overcast
 Wind from W
Wind: W 6 mph , 9 km/h
Temperature: 63°F , 17°C
Dew Point: 63°F , 17°C
Humidity: 100%
Barometer: 29.64 inHg , 1003.7 hPa
Summary: Fog
Clouds: Overcast
Visibility: 1/4 mile , 2 km
Cloud details: Overcast 200 ft
2017/06/23 10:15 KCVX 231015Z AUTO 26005KT 1/4SM FG OVC002 17/17 A2964 RMK AO2 T01660166
KANJ - Sault Ste Marie, Michigan, USA
Distance from station: N 56mi, 89km
Updated: 06/23/2017 5:55am
Fog, Overcast
Fog, Overcast
 Wind from WNW
Wind: WNW 5 mph , 7 km/h
Temperature: 61°F , 16°C
Dew Point: 61°F , 16°C
Humidity: 100%
Barometer: 29.60 inHg , 1002.4 hPa
Summary: Fog
Clouds: Overcast
Visibility: 1/4 mile , 2 km
Cloud details: Overcast 200 ft
2017/06/23 09:55 KANJ 230955Z AUTO 30004KT 1/4SM FG VV002 16/16 A2960 RMK AO2 SLP019 T01610156
 
KAPN - Alpena, Michigan, USA
Distance from station: SE 56mi, 89km
Updated: 06/23/2017 5:54am
Light rain, Overcast
Light rain, Overcast
 Wind from WSW
Wind: WSW 6 mph , 9 km/h
Temperature: 66°F , 19°C
Dew Point: 66°F , 19°C
Humidity: 100%
Barometer: 29.62 inHg , 1003 hPa
Summary: Light rain
Clouds: Overcast
Visibility: 9 miles , 14 km
Cloud details: Mostly cloudy 3000 ft
Overcast 10000 ft
2017/06/23 09:54 KAPN 230954Z AUTO 24005KT 9SM -RA BKN030 OVC100 19/19 A2962 RMK AO2 RAB02 SLP026 P0009 T01890189
CYAM - Sault Ste Marie, Ontario, Canada
Distance from station: N 56mi, 90km
Updated: 06/23/2017 6:00am
Fog, Overcast
Fog, Overcast
 Wind from WNW
Wind: WNW 5 mph , 7 km/h
Temperature: 55°F , 13°C
Dew Point: 55°F , 13°C
Humidity: 100%
Barometer: 29.60 inHg , 1002.4 hPa
Summary: Fog
Clouds: Overcast
Visibility: 1/4 mile , 2 km
Cloud details: Overcast 100 ft
2017/06/23 10:00 CYAM 231000Z 29004KT 1/4SM R12/1800FT/N FG VV001 13/13 A2960 RMK FG8 SLP027 DENSITY ALT 900FT
 
KSJX - Beaver Island, Michigan, USA
Distance from station: W 60mi, 96km
Updated: 06/23/2017 6:05am
Fog, Overcast
Fog, Overcast
 Wind from W
Wind: W 3 mph , 6 km/h
Temperature: 59°F , 15°C
Dew Point: 59°F , 15°C
Humidity: 100%
Barometer: 29.62 inHg , 1003 hPa
Summary: Fog
Clouds: Overcast
Visibility: 1/2 mile , 2 km
Cloud details: Overcast 200 ft
2017/06/23 10:05 KSJX 231005Z AUTO 27003KT 1/2SM FG OVC002 15/15 A2962 RMK AO2
KACB - Bellaire, Michigan, USA
Distance from station: SW 63mi, 102km
Updated: 06/23/2017 6:14am
Overcast
Overcast
 Wind from calm
Wind: Calm
Temperature: 64°F , 18°C
Dew Point: 63°F , 17°C
Humidity: 94%
Barometer: 29.61 inHg , 1002.7 hPa
Clouds: Overcast
Visibility: 10 miles , 16 km
Cloud details: Mostly cloudy 500 ft
Overcast 1200 ft
2017/06/23 10:14 KACB 231014Z AUTO 00000KT 10SM BKN005 OVC012 18/17 A2961 RMK AO2 T01820172
 
CWNL - Great Duck Island, Ontario, Canada
Distance from station: E 66mi, 106km
Updated: 06/23/2017 5:00am
NOT Current

 Wind from SE
Wind: SE 2 mph , 4 km/h
Temperature: 57°F , 14°C
Dew Point: 55°F , 13°C
Humidity: 94%
2017/06/23 09:00 CWNL 230900Z AUTO 14002KT 14/13 RMK AO1 SLP027 T01420134 58018
KERY - Newberry, Michigan, USA
Distance from station: NW 69mi, 112km
Updated: 06/23/2017 6:15am
Fog, Overcast
Fog, Overcast
 Wind from WSW
Wind: WSW 3 mph , 6 km/h
Temperature: 59°F , 15°C
Dew Point: 57°F , 14°C
Humidity: 94%
Barometer: 29.62 inHg , 1003 hPa
Summary: Fog
Clouds: Overcast
Visibility: 1/4 mile , 2 km
Cloud details: Overcast 200 ft
2017/06/23 10:15 KERY 231015Z AUTO 25003KT 1/4SM FG OVC002 15/14 A2962 RMK AO2 T01490144
 
KGOV - Grayling Af, Michigan, USA
Distance from station: SSW 70mi, 113km
Updated: 06/23/2017 6:14am
Light rain, Overcast
Light rain, Overcast
 Wind from calm
Wind: Calm
Temperature: 64°F , 18°C
Dew Point: 63°F , 17°C
Humidity: 94%
Barometer: 29.64 inHg , 1003.7 hPa
Summary: Light rain
Clouds: Overcast
Visibility: 7 miles , 11 km
Cloud details: Partly cloudy 600 ft
Overcast 1300 ft
2017/06/23 10:14 KGOV 231014Z AUTO 00000KT 7SM -RA SCT006 OVC013 18/17 A2964 RMK AO2 T01750171